Time;durP1;ratioP1;P1;durP2;ratioP2;P2;SDS_P1;SDS_P2;PMS_P1;PMS_P2;Temp;Humidity;BMP_temperature;BMP_pressure;BME280_temperature;BME280_humidity;BME280_pressure;Samples;Min_cycle;Max_cycle;Signal;HPM_P1;HPM_P2
2022/03/30 00:00:14;;;;;;;24.25;8.57;;;6.80;99.90;;;;;;5073906;28;20054;-81
2022/03/30 00:02:39;;;;;;;19.80;7.53;;;5.90;99.90;;;;;;5092692;28;20051;-81
2022/03/30 00:05:06;;;;;;;22.10;7.88;;;6.00;99.90;;;;;;5092385;28;20039;-81
2022/03/30 00:07:34;;;;;;;26.60;8.13;;;6.00;99.90;;;;;;5100699;28;20086;-79
2022/03/30 00:10:00;;;;;;;25.27;8.25;;;6.00;99.90;;;;;;5097226;28;20040;-80
2022/03/30 00:12:27;;;;;;;17.88;7.82;;;6.00;99.90;;;;;;5109274;28;20532;-80
2022/03/30 00:14:53;;;;;;;27.73;7.22;;;6.00;99.90;;;;;;5109377;28;20104;-80
2022/03/30 00:17:19;;;;;;;22.08;6.93;;;6.00;99.90;;;;;;5109467;28;20044;-80
2022/03/30 00:19:45;;;;;;;15.82;7.97;;;6.00;99.90;;;;;;5111075;28;20043;-80
2022/03/30 00:22:10;;;;;;;20.77;7.32;;;6.10;99.90;;;;;;5109632;28;20525;-81
2022/03/30 00:24:38;;;;;;;19.70;7.68;;;6.00;99.90;;;;;;5108778;28;20514;-80
2022/03/30 00:27:06;;;;;;;23.10;7.28;;;6.00;99.90;;;;;;5092944;28;20437;-81
2022/03/30 00:29:32;;;;;;;24.83;7.55;;;6.10;99.90;;;;;;5091745;28;20040;-81
2022/03/30 00:31:58;;;;;;;16.15;6.93;;;6.10;99.90;;;;;;5110800;27;20055;-81
2022/03/30 00:34:24;;;;;;;19.42;7.35;;;6.30;99.90;;;;;;5107086;28;20541;-80
2022/03/30 00:36:50;;;;;;;23.40;7.57;;;6.10;99.90;;;;;;5092608;28;20047;-80
2022/03/30 00:39:18;;;;;;;26.60;8.10;;;6.10;99.90;;;;;;5057722;28;20305;-80
2022/03/30 00:41:44;;;;;;;21.13;7.60;;;6.10;99.90;;;;;;5091872;28;20498;-80
2022/03/30 00:44:12;;;;;;;19.00;8.90;;;6.20;99.90;;;;;;5092024;28;20131;-79
2022/03/30 00:46:39;;;;;;;20.38;7.57;;;6.20;99.90;;;;;;5129960;27;20055;-80
2022/03/30 00:49:05;;;;;;;23.80;7.90;;;6.20;99.90;;;;;;5095771;27;20118;-80
2022/03/30 00:51:32;;;;;;;27.70;8.40;;;6.20;99.90;;;;;;5110315;27;20162;-81
2022/03/30 00:53:58;;;;;;;25.15;7.70;;;6.30;99.90;;;;;;5095203;27;20043;-80
2022/03/30 00:56:25;;;;;;;17.27;7.68;;;6.30;99.90;;;;;;5129537;27;20159;-80
2022/03/30 00:58:51;;;;;;;18.20;7.80;;;6.30;99.90;;;;;;5110746;27;20516;-80
2022/03/30 01:01:19;;;;;;;21.38;8.35;;;6.80;99.90;;;;;;5129862;27;20074;-80
2022/03/30 01:03:44;;;;;;;19.83;7.95;;;6.30;99.90;;;;;;5093675;27;20076;-82
2022/03/30 01:06:10;;;;;;;25.73;8.15;;;6.40;99.90;;;;;;5111580;27;20050;-81
2022/03/30 01:08:36;;;;;;;21.58;8.52;;;6.30;99.90;;;;;;5093353;27;20074;-80
2022/03/30 01:11:02;;;;;;;23.50;8.70;;;6.30;99.90;;;;;;5130496;27;20390;-80
2022/03/30 01:13:28;;;;;;;18.50;8.18;;;6.30;99.90;;;;;;5110595;27;20051;-81
2022/03/30 01:15:53;;;;;;;20.58;8.63;;;7.10;99.90;;;;;;5094026;27;20072;-82
2022/03/30 01:18:19;;;;;;;26.08;9.23;;;6.40;99.90;;;;;;5110932;27;20054;-81
2022/03/30 01:20:49;;;;;;;19.40;8.68;;;6.30;99.90;;;;;;5110107;27;20168;-81
2022/03/30 01:23:16;;;;;;;26.08;10.38;;;6.40;99.90;;;;;;5129885;27;20510;-80
2022/03/30 01:25:42;;;;;;;25.17;9.25;;;6.30;99.90;;;;;;5092724;27;20040;-81
2022/03/30 01:28:08;;;;;;;27.05;10.00;;;6.30;99.90;;;;;;5094569;27;20107;-81
2022/03/30 01:33:18;;;;;;;20.40;9.85;;;6.30;99.90;;;;;;5110764;27;20055;-81
2022/03/30 01:35:44;;;;;;;22.65;8.85;;;6.30;99.90;;;;;;5094462;27;20061;-81
2022/03/30 01:38:10;;;;;;;24.10;9.65;;;6.30;99.90;;;;;;5093322;27;20475;-80
2022/03/30 01:40:36;;;;;;;17.02;8.20;;;6.30;99.90;;;;;;5113104;27;20126;-80
2022/03/30 01:43:02;;;;;;;26.90;9.93;;;6.30;99.90;;;;;;5110206;27;20047;-79
2022/03/30 01:45:28;;;;;;;26.52;8.52;;;6.30;99.90;;;;;;5107703;28;20048;-80
2022/03/30 01:47:59;;;;;;;35.22;10.00;;;6.20;99.90;;;;;;5073026;28;20047;-80
2022/03/30 01:50:29;;;;;;;19.25;8.48;;;6.30;99.90;;;;;;5106311;28;20036;-78
2022/03/30 01:52:55;;;;;;;22.10;10.00;;;5.90;99.90;;;;;;5107057;28;20065;-80
2022/03/30 01:55:21;;;;;;;23.83;10.00;;;6.20;99.90;;;;;;5088573;28;20437;-81
2022/03/30 01:57:47;;;;;;;30.40;9.23;;;6.30;99.90;;;;;;5106654;28;20043;-80
2022/03/30 02:00:15;;;;;;;19.05;9.30;;;6.20;99.90;;;;;;5106616;28;20036;-79
2022/03/30 02:02:41;;;;;;;22.08;9.52;;;6.20;99.90;;;;;;5089740;28;20056;-80
2022/03/30 02:05:08;;;;;;;19.63;9.10;;;6.30;99.90;;;;;;5105324;28;20032;-80
2022/03/30 02:07:38;;;;;;;23.40;8.75;;;6.20;99.90;;;;;;5088688;28;20079;-81
2022/03/30 02:10:07;;;;;;;18.77;8.77;;;6.10;99.90;;;;;;5072635;28;20139;-82
2022/03/30 02:12:34;;;;;;;23.63;9.45;;;6.10;99.90;;;;;;5105762;28;20047;-80
2022/03/30 02:15:00;;;;;;;23.63;9.07;;;6.10;99.90;;;;;;5074167;28;20097;-81
2022/03/30 02:17:27;;;;;;;16.35;8.32;;;6.10;99.90;;;;;;5089051;28;20384;-82
2022/03/30 02:19:55;;;;;;;18.90;8.43;;;7.10;99.90;;;;;;5107554;28;20044;-81
2022/03/30 02:22:22;;;;;;;14.98;8.38;;;6.10;99.90;;;;;;5108477;28;20047;-81
2022/03/30 02:24:51;;;;;;;21.08;8.35;;;6.80;99.90;;;;;;5107271;28;20652;-81
2022/03/30 02:27:21;;;;;;;24.15;7.55;;;6.10;99.90;;;;;;5108619;28;20048;-80
2022/03/30 02:29:49;;;;;;;13.63;5.95;;;6.00;99.90;;;;;;5107392;28;20043;-78
2022/03/30 02:32:15;;;;;;;7.95;4.15;;;6.10;99.90;;;;;;5110391;28;20073;-82
2022/03/30 02:34:42;;;;;;;9.07;2.92;;;7.20;99.90;;;;;;5109330;28;20043;-80
2022/03/30 02:37:08;;;;;;;3.38;1.80;;;6.10;99.90;;;;;;5110033;28;20036;-81
2022/03/30 02:39:35;;;;;;;5.18;1.15;;;6.10;99.90;;;;;;5108731;28;20517;-81
2022/03/30 02:42:01;;;;;;;4.25;1.10;;;6.10;99.90;;;;;;5089584;28;20143;-81
2022/03/30 02:44:27;;;;;;;3.97;0.98;;;7.00;99.90;;;;;;5109317;28;20135;-80
2022/03/30 02:46:53;;;;;;;2.08;0.85;;;6.10;99.90;;;;;;5128013;28;20050;-81
2022/03/30 02:49:19;;;;;;;1.40;0.63;;;6.10;99.90;;;;;;5110827;28;20092;-80
2022/03/30 02:51:45;;;;;;;3.15;0.50;;;7.00;99.90;;;;;;5092445;28;20039;-79
2022/03/30 02:54:11;;;;;;;6.75;1.02;;;6.10;99.90;;;;;;5110916;28;20071;-80
2022/03/30 02:56:37;;;;;;;9.68;0.75;;;6.10;99.90;;;;;;5129208;28;20047;-80
2022/03/30 02:59:02;;;;;;;5.20;0.60;;;6.00;99.90;;;;;;5128194;28;20090;-80
2022/03/30 03:01:28;;;;;;;1.52;0.47;;;6.00;99.90;;;;;;5110498;28;20090;-81
2022/03/30 03:03:54;;;;;;;1.80;0.57;;;6.00;99.90;;;;;;5128108;28;20088;-81
2022/03/30 03:06:21;;;;;;;4.70;0.68;;;6.00;99.90;;;;;;5129823;28;20092;-79
2022/03/30 03:08:46;;;;;;;1.75;0.40;;;6.00;99.90;;;;;;5109943;28;20482;-81
2022/03/30 03:11:12;;;;;;;2.08;0.30;;;6.00;99.90;;;;;;5129591;27;20036;-80
2022/03/30 03:13:38;;;;;;;0.90;0.25;;;6.00;99.90;;;;;;5110512;28;20051;-80
2022/03/30 03:16:05;;;;;;;4.32;0.57;;;6.20;99.90;;;;;;5109577;27;20076;-82
2022/03/30 03:18:31;;;;;;;0.47;0.30;;;6.00;99.90;;;;;;5113431;27;20058;-82
2022/03/30 03:20:56;;;;;;;0.50;0.30;;;6.00;99.90;;;;;;5113131;27;20039;-82
2022/03/30 03:23:23;;;;;;;0.20;0.20;;;5.90;99.90;;;;;;5080968;27;20420;-81
2022/03/30 03:25:49;;;;;;;2.08;0.40;;;6.50;99.90;;;;;;5096256;27;20059;-80
2022/03/30 03:28:15;;;;;;;1.45;0.40;;;5.90;99.90;;;;;;5133108;27;20055;-80
2022/03/30 03:30:41;;;;;;;0.47;0.15;;;6.30;99.90;;;;;;5114475;27;20046;-80
2022/03/30 03:33:09;;;;;;;2.58;0.17;;;5.90;99.90;;;;;;5132676;27;20043;-80
2022/03/30 03:35:35;;;;;;;4.60;0.20;;;5.90;99.90;;;;;;5133837;27;20089;-80
2022/03/30 03:38:03;;;;;;;1.40;0.30;;;5.90;99.90;;;;;;5113691;27;20087;-80
2022/03/30 03:40:32;;;;;;;1.13;0.10;;;5.90;99.90;;;;;;5114944;27;20062;-80
2022/03/30 03:42:59;;;;;;;2.53;0.17;;;5.90;99.90;;;;;;5131889;27;20070;-80
2022/03/30 03:45:25;;;;;;;0.20;0.13;;;5.90;99.90;;;;;;5114274;27;20171;-80
2022/03/30 03:47:51;;;;;;;0.20;0.20;;;5.80;99.90;;;;;;5096435;27;20047;-79
2022/03/30 03:50:18;;;;;;;2.13;0.10;;;5.80;99.90;;;;;;5096377;27;20494;-80
2022/03/30 03:52:44;;;;;;;0.68;0.22;;;5.80;99.90;;;;;;5079580;27;20035;-81
2022/03/30 03:55:11;;;;;;;0.82;0.20;;;5.80;99.90;;;;;;5112586;27;20039;-80
2022/03/30 03:57:41;;;;;;;0.52;0.22;;;5.80;99.90;;;;;;5132142;27;20454;-80
2022/03/30 04:00:08;;;;;;;3.13;0.28;;;5.70;99.90;;;;;;5095455;27;20063;-79
2022/03/30 04:02:34;;;;;;;0.35;0.20;;;5.70;99.90;;;;;;5095942;27;20079;-79
2022/03/30 04:05:00;;;;;;;0.80;0.10;;;5.70;99.90;;;;;;5095838;27;20511;-79
2022/03/30 04:07:26;;;;;;;0.93;0.13;;;5.60;99.90;;;;;;5112351;27;20066;-80
2022/03/30 04:09:52;;;;;;;0.10;0.10;;;6.90;99.90;;;;;;5131304;27;20067;-81
2022/03/30 04:12:18;;;;;;;1.05;0.10;;;5.60;99.90;;;;;;5129336;27;20062;-81
2022/03/30 04:14:43;;;;;;;0.20;0.13;;;5.60;99.90;;;;;;5095589;27;20178;-80
2022/03/30 04:17:10;;;;;;;1.02;0.30;;;5.50;99.90;;;;;;5093892;27;20054;-79
2022/03/30 04:19:36;;;;;;;0.90;0.28;;;5.50;99.90;;;;;;5130779;27;20072;-80
2022/03/30 04:22:02;;;;;;;0.98;0.30;;;5.50;99.90;;;;;;5130697;27;20122;-80
2022/03/30 04:24:28;;;;;;;0.75;0.30;;;5.50;99.90;;;;;;5111253;27;20043;-79
2022/03/30 04:26:53;;;;;;;1.60;0.32;;;5.30;99.90;;;;;;5094921;27;20134;-80
2022/03/30 04:29:19;;;;;;;0.70;0.35;;;6.10;99.90;;;;;;5092963;27;20122;-80
2022/03/30 04:31:45;;;;;;;0.95;0.30;;;6.20;99.90;;;;;;5112354;27;20043;-81
2022/03/30 04:34:10;;;;;;;2.67;0.40;;;5.20;99.90;;;;;;5129256;27;20035;-79
2022/03/30 04:36:36;;;;;;;1.00;0.40;;;5.20;99.90;;;;;;5130151;27;20553;-81
2022/03/30 04:39:03;;;;;;;0.60;0.30;;;5.20;99.90;;;;;;5111690;27;20093;-80
2022/03/30 04:41:28;;;;;;;2.88;0.65;;;5.10;99.90;;;;;;5077416;27;20195;-80
2022/03/30 04:43:54;;;;;;;4.00;0.50;;;5.10;99.90;;;;;;5096014;27;20131;-86
2022/03/30 04:46:20;;;;;;;1.60;0.40;;;5.40;99.90;;;;;;5078172;27;20047;-84
2022/03/30 04:48:46;;;;;;;0.60;0.30;;;4.80;99.90;;;;;;5095585;27;20062;-83
2022/03/30 04:51:11;;;;;;;4.30;0.35;;;6.30;99.90;;;;;;5109999;27;20516;-83
2022/03/30 04:53:37;;;;;;;1.83;0.60;;;5.10;99.90;;;;;;5110347;27;20424;-82
2022/03/30 04:56:03;;;;;;;2.58;0.50;;;5.00;99.90;;;;;;5109614;27;20043;-85
2022/03/30 04:58:30;;;;;;;0.68;0.40;;;5.00;99.90;;;;;;5109858;27;20035;-85
2022/03/30 05:00:55;;;;;;;2.05;0.50;;;5.00;99.90;;;;;;5092850;27;20050;-84
2022/03/30 05:03:21;;;;;;;3.67;0.57;;;6.20;99.90;;;;;;5127249;27;20039;-85
2022/03/30 05:05:47;;;;;;;2.05;0.75;;;4.90;99.90;;;;;;5110515;27;20366;-85
2022/03/30 05:08:12;;;;;;;1.88;0.60;;;6.20;99.90;;;;;;5091319;27;20048;-87
2022/03/30 05:10:38;;;;;;;5.55;0.73;;;5.40;99.90;;;;;;5092893;27;20074;-86
2022/03/30 05:13:05;;;;;;;0.60;0.50;;;5.20;99.90;;;;;;5075325;27;20122;-85
2022/03/30 05:15:31;;;;;;;5.40;0.90;;;4.80;99.90;;;;;;5076443;27;20054;-85
2022/03/30 05:17:57;;;;;;;2.47;0.57;;;5.40;99.90;;;;;;5092669;27;20039;-85
2022/03/30 05:20:25;;;;;;;14.98;0.88;;;5.90;99.90;;;;;;5128162;27;20474;-84
2022/03/30 05:22:51;;;;;;;4.60;0.85;;;5.40;99.90;;;;;;5093657;28;20082;-86
2022/03/30 05:25:19;;;;;;;5.10;0.70;;;4.70;99.90;;;;;;5093961;27;20078;-85
2022/03/30 05:27:45;;;;;;;3.60;0.75;;;4.90;99.90;;;;;;5093197;27;20066;-83
2022/03/30 05:30:12;;;;;;;2.78;0.60;;;4.70;99.90;;;;;;5091632;27;20082;-81
2022/03/30 05:32:38;;;;;;;5.20;0.90;;;3.60;99.90;;;;;;5109213;27;20081;-82
2022/03/30 05:35:05;;;;;;;1.25;0.55;;;5.70;99.90;;;;;;5127718;27;20093;-84
2022/03/30 05:37:32;;;;;;;1.23;0.60;;;4.70;99.90;;;;;;5126634;27;20039;-85
2022/03/30 05:39:58;;;;;;;2.53;0.93;;;4.70;99.90;;;;;;5127852;27;20104;-83
2022/03/30 05:42:24;;;;;;;1.80;0.70;;;4.70;99.90;;;;;;5126986;27;20039;-86
2022/03/30 05:44:50;;;;;;;0.77;0.57;;;4.70;99.90;;;;;;5092736;27;20129;-84
2022/03/30 05:47:16;;;;;;;2.60;0.43;;;5.00;99.90;;;;;;5109298;27;20456;-83
2022/03/30 05:49:43;;;;;;;2.95;0.60;;;5.60;99.90;;;;;;5109497;27;20259;-84
2022/03/30 05:52:09;;;;;;;6.57;0.90;;;6.10;99.90;;;;;;5092196;28;20130;-84
2022/03/30 05:54:35;;;;;;;3.65;0.60;;;4.90;99.90;;;;;;5075047;28;20078;-83
2022/03/30 05:57:01;;;;;;;7.35;1.10;;;4.70;99.90;;;;;;5128664;27;20068;-84
2022/03/30 05:59:36;;;;;;;1.02;0.80;;;4.70;99.90;;;;;;5108053;27;20187;-83
2022/03/30 06:02:04;;;;;;;2.28;0.95;;;4.70;99.90;;;;;;5109419;28;20043;-87
2022/03/30 06:04:31;;;;;;;3.40;0.95;;;4.70;99.90;;;;;;5108537;28;20086;-83
2022/03/30 06:06:57;;;;;;;5.50;1.13;;;4.70;99.90;;;;;;5109280;28;20066;-82
2022/03/30 06:09:23;;;;;;;2.42;0.90;;;4.80;99.90;;;;;;5109042;28;20479;-84
2022/03/30 06:11:49;;;;;;;3.92;0.93;;;4.80;99.90;;;;;;5091519;28;20054;-84
2022/03/30 06:14:15;;;;;;;3.90;1.10;;;4.80;99.90;;;;;;5109770;28;20118;-84
2022/03/30 06:16:42;;;;;;;1.60;0.63;;;6.00;99.90;;;;;;5126517;28;20124;-83
2022/03/30 06:19:12;;;;;;;3.78;1.10;;;4.90;99.90;;;;;;5127405;28;20066;-84
2022/03/30 06:21:38;;;;;;;5.80;1.05;;;4.90;99.90;;;;;;5108646;28;20118;-82
2022/03/30 06:24:05;;;;;;;5.90;1.00;;;4.90;99.90;;;;;;5091196;28;20035;-84
2022/03/30 06:26:31;;;;;;;8.40;1.10;;;5.00;99.90;;;;;;5074631;28;20080;-83
2022/03/30 06:28:57;;;;;;;13.73;1.67;;;5.10;99.90;;;;;;5108049;28;20079;-84
2022/03/30 06:31:22;;;;;;;16.40;1.88;;;5.00;99.90;;;;;;5092564;28;20139;-83
2022/03/30 06:33:49;;;;;;;9.05;1.05;;;5.00;99.90;;;;;;5126108;28;20454;-83
2022/03/30 06:36:15;;;;;;;6.88;1.60;;;5.10;99.90;;;;;;5127515;28;20049;-84
2022/03/30 06:38:42;;;;;;;5.60;0.85;;;5.60;99.90;;;;;;5091300;28;20083;-84
2022/03/30 06:41:09;;;;;;;4.45;1.27;;;6.50;99.90;;;;;;5126316;28;20122;-84
2022/03/30 06:43:42;;;;;;;2.28;1.05;;;5.30;99.90;;;;;;5074587;28;20095;-83
2022/03/30 06:46:09;;;;;;;5.40;0.90;;;5.30;99.90;;;;;;5091955;28;20051;-84
2022/03/30 06:48:35;;;;;;;4.40;0.88;;;5.30;99.90;;;;;;5109087;28;20047;-83
2022/03/30 06:51:01;;;;;;;2.83;0.70;;;6.40;99.90;;;;;;5126477;27;20056;-84
2022/03/30 06:53:26;;;;;;;9.35;1.00;;;5.40;99.90;;;;;;5131097;27;20122;-84
2022/03/30 06:55:52;;;;;;;4.00;1.23;;;6.90;99.90;;;;;;5095282;27;20066;-84
2022/03/30 06:58:18;;;;;;;3.95;1.02;;;6.10;99.90;;;;;;5130000;27;20039;-84
2022/03/30 07:00:44;;;;;;;5.22;0.93;;;5.70;99.90;;;;;;5112103;27;20088;-84
2022/03/30 07:03:10;;;;;;;11.02;1.30;;;7.00;99.90;;;;;;5094639;27;20070;-84
2022/03/30 07:05:38;;;;;;;6.70;1.00;;;5.80;99.90;;;;;;5131763;27;20043;-83
2022/03/30 07:10:48;;;;;;;4.97;1.00;;;5.90;99.90;;;;;;5112138;27;20039;-84
2022/03/30 07:13:14;;;;;;;6.55;1.38;;;6.00;99.90;;;;;;5111647;27;20047;-83
2022/03/30 07:15:41;;;;;;;1.70;0.50;;;6.10;99.90;;;;;;5130062;27;20039;-84
2022/03/30 07:18:08;;;;;;;2.15;0.90;;;6.20;99.90;;;;;;5112145;27;20475;-83
2022/03/30 07:20:35;;;;;;;5.93;0.93;;;6.30;99.90;;;;;;5111379;27;20039;-84
2022/03/30 07:23:02;;;;;;;2.47;0.80;;;6.40;99.90;;;;;;5112377;27;20043;-84
2022/03/30 07:25:30;;;;;;;6.65;0.68;;;6.50;99.90;;;;;;5111169;27;20047;-84
2022/03/30 07:28:02;;;;;;;3.28;0.60;;;7.80;99.90;;;;;;5111903;27;20490;-84
2022/03/30 07:30:28;;;;;;;2.78;0.60;;;6.60;99.90;;;;;;5095104;27;20043;-81
2022/03/30 07:32:55;;;;;;;12.23;2.45;;;6.70;99.90;;;;;;5129842;27;20036;-84
2022/03/30 07:35:23;;;;;;;8.82;1.15;;;7.20;99.90;;;;;;5112300;27;20192;-81
2022/03/30 07:37:49;;;;;;;3.47;0.88;;;6.80;99.90;;;;;;5129289;27;20443;-81
2022/03/30 07:40:17;;;;;;;7.13;0.85;;;6.80;99.90;;;;;;5131106;27;20126;-81
2022/03/30 07:42:45;;;;;;;12.23;1.02;;;7.70;99.90;;;;;;5129596;27;20047;-85
2022/03/30 07:45:11;;;;;;;10.70;0.80;;;8.40;99.90;;;;;;5111674;27;20156;-81
2022/03/30 07:47:37;;;;;;;4.80;0.55;;;7.70;99.90;;;;;;5129707;27;20539;-85
2022/03/30 07:50:04;;;;;;;11.45;0.85;;;7.10;99.90;;;;;;5093928;27;20043;-83
2022/03/30 07:52:30;;;;;;;9.57;1.00;;;7.10;99.90;;;;;;5130713;27;20122;-80
2022/03/30 07:54:56;;;;;;;6.32;1.38;;;7.10;99.90;;;;;;5129784;27;20123;-80
2022/03/30 07:57:28;;;;;;;7.75;0.93;;;7.10;99.90;;;;;;5112613;27;20039;-79
2022/03/30 07:59:57;;;;;;;6.80;0.50;;;7.10;99.90;;;;;;5111964;27;20464;-79
2022/03/30 08:02:23;;;;;;;6.15;0.63;;;7.00;99.90;;;;;;5129943;27;20043;-79
2022/03/30 08:04:50;;;;;;;3.30;0.40;;;6.90;99.90;;;;;;5129556;27;20042;-79
2022/03/30 08:07:16;;;;;;;3.95;0.47;;;6.80;99.90;;;;;;5130042;27;20499;-80
2022/03/30 08:09:42;;;;;;;1.25;0.30;;;6.70;99.90;;;;;;5095187;27;20079;-80
2022/03/30 08:12:11;;;;;;;3.50;0.45;;;6.60;99.90;;;;;;5129456;27;20058;-81
2022/03/30 08:14:37;;;;;;;2.10;0.20;;;7.30;99.90;;;;;;5111806;27;20082;-80
2022/03/30 08:17:03;;;;;;;6.07;0.68;;;6.60;99.90;;;;;;5129560;27;20043;-80
2022/03/30 08:19:29;;;;;;;2.20;0.40;;;6.40;99.90;;;;;;5129813;27;20507;-79
2022/03/30 08:24:39;;;;;;;2.75;0.40;;;6.50;99.90;;;;;;5129040;27;20047;-79
2022/03/30 08:27:07;;;;;;;4.22;0.47;;;6.50;99.90;;;;;;5111912;27;20062;-80
2022/03/30 08:29:33;;;;;;;4.13;0.38;;;6.60;99.90;;;;;;5110746;27;20425;-79
2022/03/30 08:31:59;;;;;;;0.98;0.20;;;6.60;99.90;;;;;;5111685;27;20095;-79
2022/03/30 08:34:25;;;;;;;2.17;0.55;;;6.60;99.90;;;;;;5110761;27;20387;-79
2022/03/30 08:36:51;;;;;;;3.20;0.85;;;6.80;99.90;;;;;;5094689;27;20054;-79
2022/03/30 08:39:18;;;;;;;2.10;0.30;;;6.60;99.90;;;;;;5111028;27;20399;-78
2022/03/30 08:41:45;;;;;;;1.85;0.25;;;6.70;99.90;;;;;;5110440;27;20512;-78
2022/03/30 08:44:16;;;;;;;2.05;0.47;;;6.80;99.90;;;;;;5094645;27;20043;-79
2022/03/30 08:46:42;;;;;;;2.28;0.52;;;6.90;99.90;;;;;;5110041;27;20058;-79
2022/03/30 08:49:08;;;;;;;4.80;0.40;;;7.00;99.90;;;;;;5111268;27;20043;-79
2022/03/30 08:51:38;;;;;;;1.60;0.40;;;7.10;99.90;;;;;;5093525;27;20156;-78
2022/03/30 08:54:04;;;;;;;3.47;0.30;;;7.40;99.90;;;;;;5129120;27;20039;-80
2022/03/30 08:56:30;;;;;;;3.70;0.20;;;7.20;99.90;;;;;;5110847;27;20500;-79
2022/03/30 08:59:10;;;;;;;3.70;0.50;;;7.70;99.90;;;;;;5128914;27;20675;-79
2022/03/30 09:01:39;;;;;;;1.92;0.47;;;7.30;99.90;;;;;;5129902;27;20043;-79
2022/03/30 09:04:08;;;;;;;3.83;0.32;;;7.40;99.90;;;;;;5128609;27;20050;-78
2022/03/30 09:06:47;;;;;;;3.88;0.43;;;7.40;99.90;;;;;;5110148;27;20054;-78
2022/03/30 09:09:15;;;;;;;1.40;0.30;;;7.50;99.90;;;;;;5110829;27;20055;-80
2022/03/30 09:11:40;;;;;;;10.48;0.60;;;7.60;99.90;;;;;;5093193;27;20050;-80
2022/03/30 09:14:10;;;;;;;4.18;0.40;;;7.70;99.90;;;;;;5111368;27;20501;-79
2022/03/30 09:16:45;;;;;;;5.10;0.30;;;7.90;99.90;;;;;;5075956;27;20038;-80
2022/03/30 09:19:13;;;;;;;3.72;0.30;;;8.10;99.90;;;;;;5110280;27;20078;-80
2022/03/30 09:21:59;;;;;;;6.20;0.30;;;8.20;99.90;;;;;;5093672;27;20061;-80
2022/03/30 09:24:26;;;;;;;4.55;0.55;;;8.40;99.90;;;;;;5109057;27;20104;-78
2022/03/30 09:26:53;;;;;;;12.35;0.65;;;8.40;99.90;;;;;;5111144;27;20067;-79
2022/03/30 09:29:20;;;;;;;5.05;0.30;;;8.40;99.90;;;;;;5092708;27;20044;-79
2022/03/30 09:31:48;;;;;;;6.10;0.55;;;8.30;99.90;;;;;;5129124;27;20046;-80
2022/03/30 09:34:15;;;;;;;1.02;0.28;;;8.20;99.90;;;;;;5110035;27;20104;-80
2022/03/30 09:36:42;;;;;;;3.20;0.40;;;8.00;99.90;;;;;;5109700;27;20421;-80
2022/03/30 09:39:30;;;;;;;1.25;0.30;;;7.90;99.90;;;;;;5093328;27;20128;-80
2022/03/30 09:41:58;;;;;;;8.57;0.60;;;7.80;99.90;;;;;;5127015;27;20115;-81
2022/03/30 09:44:29;;;;;;;7.45;0.77;;;7.90;99.90;;;;;;5128945;27;20046;-78
2022/03/30 09:47:05;;;;;;;3.45;0.68;;;8.10;99.90;;;;;;5109478;27;20055;-79
2022/03/30 09:49:52;;;;;;;10.70;0.32;;;8.60;99.90;;;;;;5109847;27;20055;-79
2022/03/30 09:52:19;;;;;;;3.17;0.40;;;8.70;99.90;;;;;;5110226;27;20131;-77
2022/03/30 09:54:51;;;;;;;7.90;0.68;;;8.20;99.90;;;;;;5109552;27;20111;-80
2022/03/30 09:57:19;;;;;;;15.63;0.55;;;8.20;99.90;;;;;;5093833;27;20047;-80
2022/03/30 10:00:02;;;;;;;2.90;0.57;;;8.80;99.90;;;;;;5109296;27;20079;-81
2022/03/30 10:02:31;;;;;;;4.07;0.50;;;8.20;99.90;;;;;;5093334;27;20100;-80
2022/03/30 10:04:57;;;;;;;5.75;0.75;;;8.20;99.90;;;;;;5128023;28;20043;-80
2022/03/30 10:07:23;;;;;;;10.57;1.10;;;8.20;99.90;;;;;;5109090;28;20080;-79
2022/03/30 10:09:49;;;;;;;13.38;1.33;;;8.10;99.90;;;;;;5109892;28;20494;-80
2022/03/30 10:12:19;;;;;;;12.20;0.85;;;8.20;99.90;;;;;;5108722;28;20087;-80
2022/03/30 10:14:47;;;;;;;5.25;0.68;;;8.20;99.90;;;;;;5076988;28;20466;-81
2022/03/30 10:17:13;;;;;;;1.70;0.70;;;8.30;99.90;;;;;;5092144;28;20627;-80
2022/03/30 10:19:44;;;;;;;2.95;0.50;;;8.30;99.90;;;;;;5109213;28;20078;-80
2022/03/30 10:22:19;;;;;;;4.70;0.63;;;8.30;99.90;;;;;;5110020;28;20126;-80
2022/03/30 10:25:22;;;;;;;6.95;0.70;;;8.40;99.90;;;;;;5108781;28;20049;-80
2022/03/30 10:27:53;;;;;;;4.32;0.50;;;8.40;99.90;;;;;;5113058;27;20051;-80
2022/03/30 10:30:29;;;;;;;5.18;0.80;;;8.40;99.90;;;;;;5114034;27;20039;-80
2022/03/30 10:33:00;;;;;;;5.15;0.70;;;8.30;99.90;;;;;;5096673;27;20386;-80
2022/03/30 10:35:47;;;;;;;6.25;0.52;;;8.30;99.90;;;;;;5132588;27;20041;-79
2022/03/30 10:38:15;;;;;;;6.60;0.60;;;8.30;99.90;;;;;;5131335;27;20038;-81
2022/03/30 10:40:43;;;;;;;5.68;1.02;;;8.40;99.90;;;;;;5131884;27;20122;-81
2022/03/30 10:43:08;;;;;;;6.57;0.60;;;8.40;99.90;;;;;;5131797;27;20131;-81
2022/03/30 10:45:41;;;;;;;6.68;0.40;;;8.40;99.90;;;;;;5131536;27;20104;-80
2022/03/30 10:48:28;;;;;;;3.42;0.75;;;8.50;99.90;;;;;;5113896;27;20066;-79
2022/03/30 10:50:58;;;;;;;4.13;0.57;;;8.40;99.90;;;;;;5131529;27;20046;-81
2022/03/30 10:53:39;;;;;;;9.48;0.40;;;8.30;99.90;;;;;;5112927;27;20054;-79
2022/03/30 10:56:07;;;;;;;4.28;0.85;;;8.30;99.90;;;;;;5113257;27;20082;-81
2022/03/30 10:58:59;;;;;;;2.28;0.30;;;8.30;99.90;;;;;;5096121;27;20390;-80
2022/03/30 11:01:25;;;;;;;0.95;0.40;;;8.30;99.90;;;;;;5113509;27;20054;-80
2022/03/30 11:04:08;;;;;;;1.90;0.30;;;8.30;99.90;;;;;;5095654;27;20562;-81
2022/03/30 11:06:36;;;;;;;2.25;0.30;;;8.40;99.90;;;;;;5113345;27;20039;-79
2022/03/30 11:09:03;;;;;;;1.35;0.45;;;8.40;99.90;;;;;;5131607;27;20092;-80
2022/03/30 11:11:40;;;;;;;1.73;0.38;;;8.50;99.90;;;;;;5095554;27;20050;-80
2022/03/30 11:14:29;;;;;;;4.22;0.40;;;8.80;99.90;;;;;;5114461;27;20047;-78
2022/03/30 11:17:00;;;;;;;4.82;0.50;;;8.90;97.80;;;;;;5131221;27;20043;-80
2022/03/30 11:19:45;;;;;;;14.80;0.80;;;9.40;99.20;;;;;;5131048;27;20058;-79
2022/03/30 11:22:16;;;;;;;2.88;0.35;;;9.20;99.90;;;;;;5131355;27;20071;-78
2022/03/30 11:24:46;;;;;;;7.35;0.35;;;9.40;99.20;;;;;;5111668;27;20042;-78
2022/03/30 11:27:15;;;;;;;1.63;0.35;;;9.60;97.60;;;;;;5131686;27;20063;-79
2022/03/30 11:29:41;;;;;;;0.90;0.20;;;9.50;96.70;;;;;;5112350;27;20051;-79
2022/03/30 11:32:19;;;;;;;4.75;0.45;;;9.50;96.60;;;;;;5112532;27;20035;-80
2022/03/30 11:34:46;;;;;;;1.70;0.22;;;9.50;92.80;;;;;;5112674;27;20047;-81
2022/03/30 11:37:13;;;;;;;6.03;0.40;;;9.50;95.90;;;;;;5111511;27;20126;-81
2022/03/30 11:39:40;;;;;;;2.05;0.38;;;9.40;95.90;;;;;;5111794;27;20095;-79
2022/03/30 11:42:06;;;;;;;4.40;0.60;;;9.40;96.20;;;;;;5111629;27;20081;-79
2022/03/30 11:47:19;;;;;;;5.15;0.40;;;10.60;95.00;;;;;;5111703;27;20505;-80
2022/03/30 11:49:52;;;;;;;4.47;0.40;;;9.40;93.50;;;;;;5095123;27;20134;-79
2022/03/30 11:52:19;;;;;;;2.33;0.20;;;9.50;93.40;;;;;;5112969;27;20098;-80
2022/03/30 11:54:50;;;;;;;7.05;0.80;;;9.80;94.30;;;;;;5077625;27;20497;-81
2022/03/30 11:57:18;;;;;;;1.30;0.28;;;10.00;93.70;;;;;;5112908;27;20047;-80
2022/03/30 11:59:57;;;;;;;4.55;0.63;;;10.30;91.60;;;;;;5111639;27;20039;-80
2022/03/30 12:02:25;;;;;;;4.65;0.40;;;10.30;84.30;;;;;;5094536;27;20054;-80
2022/03/30 12:04:54;;;;;;;3.65;0.30;;;10.30;90.10;;;;;;5112023;27;20100;-79
2022/03/30 12:07:20;;;;;;;3.88;0.40;;;10.10;87.40;;;;;;5129501;27;20039;-80
2022/03/30 12:09:47;;;;;;;2.22;0.20;;;10.10;90.30;;;;;;5112184;27;20070;-80
2022/03/30 12:12:25;;;;;;;4.55;0.38;;;9.90;86.90;;;;;;5094156;27;20124;-80
2022/03/30 12:14:57;;;;;;;1.45;0.20;;;9.70;80.10;;;;;;5130561;27;20437;-79
2022/03/30 12:17:27;;;;;;;4.82;0.38;;;9.50;82.50;;;;;;5130178;27;20043;-80
2022/03/30 12:19:54;;;;;;;5.90;0.55;;;9.20;82.70;;;;;;5129776;27;20078;-79
2022/03/30 12:22:20;;;;;;;2.83;0.50;;;9.20;88.10;;;;;;5112113;27;20046;-80
2022/03/30 12:24:46;;;;;;;6.47;0.63;;;9.30;90.30;;;;;;5129654;27;20099;-80
2022/03/30 12:27:12;;;;;;;5.15;0.63;;;9.50;89.50;;;;;;5130433;27;20478;-80
2022/03/30 12:29:38;;;;;;;7.38;0.30;;;9.60;86.90;;;;;;5093881;27;20047;-78
2022/03/30 12:32:05;;;;;;;6.18;0.47;;;9.90;85.90;;;;;;5111240;27;20089;-79
2022/03/30 12:34:35;;;;;;;4.53;0.40;;;9.80;83.00;;;;;;5093938;27;20092;-80
2022/03/30 12:37:05;;;;;;;3.47;0.40;;;9.00;82.40;;;;;;5111031;27;20095;-79
2022/03/30 12:39:40;;;;;;;2.90;0.30;;;9.70;82.40;;;;;;5095174;27;20039;-80
2022/03/30 12:42:17;;;;;;;2.53;0.30;;;9.60;80.30;;;;;;5129358;27;20039;-81
2022/03/30 12:44:54;;;;;;;2.92;0.38;;;9.50;80.10;;;;;;5129549;27;20058;-80
2022/03/30 12:47:30;;;;;;;1.13;0.20;;;9.50;79.40;;;;;;5111501;27;20051;-81
2022/03/30 12:50:03;;;;;;;1.95;0.40;;;9.60;80.00;;;;;;5128574;27;20082;-80
2022/03/30 12:52:34;;;;;;;;;;;9.70;79.80;;;;;;5130612;27;20035;-81
2022/03/30 12:55:14;;;;;;;5.25;0.60;;;9.90;67.70;;;;;;5110442;27;19959;-81
2022/03/30 12:57:55;;;;;;;2.33;0.52;;;10.20;76.10;;;;;;5110407;27;20131;-81
2022/03/30 13:00:28;;;;;;;2.25;0.45;;;10.70;75.00;;;;;;5129113;27;20490;-82
2022/03/30 13:03:06;;;;;;;0.95;0.20;;;11.20;73.10;;;;;;5128884;27;20393;-82
2022/03/30 13:05:31;;;;;;;4.65;0.77;;;11.60;68.40;;;;;;5129697;27;20043;-81
2022/03/30 13:07:57;;;;;;;2.65;0.43;;;11.80;70.90;;;;;;5110446;27;20087;-82
2022/03/30 13:10:23;;;;;;;4.75;0.50;;;12.10;69.10;;;;;;5093329;27;20525;-80